Time;durP1;ratioP1;P1;durP2;ratioP2;P2;SDS_P1;SDS_P2;PMS_P1;PMS_P2;Temp;Humidity;BMP_temperature;BMP_pressure;BME280_temperature;BME280_humidity;BME280_pressure;Samples;Min_cycle;Max_cycle;Signal;HPM_P1;HPM_P2
2022/04/25 00:00:35;;;;;;;;;;;26.30;49.10;;;;;;5144169;27;19907;-48
2022/04/25 00:03:01;;;;;;;;;;;26.30;49.10;;;;;;5146717;27;20007;-49
2022/04/25 00:05:27;;;;;;;;;;;26.20;48.90;;;;;;5165347;27;19914;-46
2022/04/25 00:07:53;;;;;;;;;;;26.30;49.00;;;;;;5164967;27;19954;-46
2022/04/25 00:10:19;;;;;;;;;;;26.20;48.90;;;;;;5164818;27;19906;-46
2022/04/25 00:12:45;;;;;;;;;;;26.20;48.90;;;;;;5164028;27;19907;-49
2022/04/25 00:15:12;;;;;;;;;;;26.20;48.90;;;;;;5164753;27;20036;-46
2022/04/25 00:17:38;;;;;;;;;;;26.20;48.90;;;;;;5164612;27;19919;-47
2022/04/25 00:20:04;;;;;;;;;;;26.20;48.90;;;;;;5164664;27;19943;-47
2022/04/25 00:22:30;;;;;;;;;;;26.20;48.80;;;;;;5165108;27;19930;-46
2022/04/25 00:24:56;;;;;;;;;;;26.20;48.90;;;;;;5163465;27;19921;-45
2022/04/25 00:27:22;;;;;;;;;;;26.20;48.80;;;;;;5164385;27;19907;-46
2022/04/25 00:29:48;;;;;;;;;;;26.20;48.90;;;;;;5164898;27;19903;-48
2022/04/25 00:32:14;;;;;;;;;;;26.20;48.90;;;;;;5164267;27;19907;-49
2022/04/25 00:34:39;;;;;;;;;;;26.20;48.90;;;;;;5164567;27;19953;-47
2022/04/25 00:37:05;;;;;;;;;;;26.20;48.80;;;;;;5164637;27;19904;-47
2022/04/25 00:39:31;;;;;;;;;;;26.20;48.80;;;;;;5164378;27;19922;-47
2022/04/25 00:41:57;;;;;;;;;;;26.20;48.80;;;;;;5164345;27;19913;-47
2022/04/25 00:44:23;;;;;;;;;;;26.10;48.80;;;;;;5164480;27;19910;-48
2022/04/25 00:46:51;;;;;;;;;;;26.10;48.80;;;;;;5164422;27;19911;-47
2022/04/25 00:49:17;;;;;;;;;;;26.10;48.80;;;;;;5145718;27;19903;-49
2022/04/25 00:51:43;;;;;;;;;;;26.10;48.90;;;;;;5164443;27;19913;-46
2022/04/25 00:54:09;;;;;;;;;;;26.10;48.80;;;;;;5163552;27;19910;-46
2022/04/25 00:56:35;;;;;;;;;;;26.10;48.90;;;;;;5164243;27;19903;-48
2022/04/25 00:59:02;;;;;;;;;;;26.10;48.90;;;;;;5164198;27;19915;-47
2022/04/25 01:01:28;;;;;;;;;;;26.10;48.90;;;;;;5163786;27;19998;-47
2022/04/25 01:03:53;;;;;;;;;;;26.10;48.90;;;;;;5145767;27;20478;-47
2022/04/25 01:06:19;;;;;;;;;;;26.10;48.90;;;;;;5161460;27;19957;-50
2022/04/25 01:08:45;;;;;;;;;;;26.10;48.80;;;;;;5164253;27;19907;-49
2022/04/25 01:11:12;;;;;;;;;;;26.10;48.90;;;;;;5164096;27;19907;-47
2022/04/25 01:13:38;;;;;;;;;;;26.10;48.90;;;;;;5145863;27;19967;-46
2022/04/25 01:16:04;;;;;;;;;;;26.00;48.80;;;;;;5163635;27;19938;-50
2022/04/25 01:18:30;;;;;;;;;;;26.00;48.90;;;;;;5164080;27;19911;-48
2022/04/25 01:20:56;;;;;;;;;;;26.00;48.90;;;;;;5163892;27;19903;-47
2022/04/25 01:28:51;;;;;;;;;;;26.00;48.90;;;;;;5168143;27;20418;-46
2022/04/25 01:31:17;;;;;;;;;;;26.00;49.00;;;;;;5167857;27;20511;-47
2022/04/25 01:33:43;;;;;;;;;;;26.00;48.90;;;;;;5168178;27;19913;-47
2022/04/25 01:36:09;;;;;;;;;;;25.90;48.80;;;;;;5164046;27;19918;-46
2022/04/25 01:38:34;;;;;;;;;;;25.90;48.80;;;;;;5167861;27;20392;-47
2022/04/25 01:41:00;;;;;;;;;;;25.90;48.90;;;;;;5167643;27;19903;-48
2022/04/25 01:43:26;;;;;;;;;;;25.90;48.70;;;;;;5167969;27;19945;-49
2022/04/25 01:45:52;;;;;;;;;;;25.90;48.80;;;;;;5167705;27;19923;-48
2022/04/25 01:48:18;;;;;;;;;;;25.90;48.70;;;;;;5167544;27;20307;-46
2022/04/25 01:50:44;;;;;;;;;;;25.80;48.60;;;;;;5167811;27;20358;-46
2022/04/25 01:53:09;;;;;;;;;;;25.80;48.70;;;;;;5167532;27;19976;-46
2022/04/25 01:55:35;;;;;;;;;;;25.80;48.60;;;;;;5153959;27;19910;-47
2022/04/25 01:58:01;;;;;;;;;;;25.80;48.70;;;;;;5147118;27;20006;-47
2022/04/25 02:00:27;;;;;;;;;;;25.80;48.60;;;;;;5146670;27;19969;-48
2022/04/25 02:02:53;;;;;;;;;;;25.80;48.60;;;;;;5146435;27;19910;-47
2022/04/25 02:05:19;;;;;;;;;;;25.70;48.50;;;;;;5156652;27;19914;-46
2022/04/25 02:07:44;;;;;;;;;;;25.70;48.50;;;;;;5167094;27;19955;-47
2022/04/25 02:10:10;;;;;;;;;;;25.70;48.60;;;;;;5167171;27;19906;-48
2022/04/25 02:12:36;;;;;;;;;;;25.70;48.50;;;;;;5166875;27;19928;-47
2022/04/25 02:15:02;;;;;;;;;;;25.70;48.60;;;;;;5167134;27;19979;-47
2022/04/25 02:17:28;;;;;;;;;;;25.60;48.50;;;;;;5166896;27;20325;-47
2022/04/25 02:19:54;;;;;;;;;;;25.60;48.50;;;;;;5166908;27;19915;-46
2022/04/25 02:22:20;;;;;;;;;;;25.60;48.50;;;;;;5167088;27;20370;-48
2022/04/25 02:24:46;;;;;;;;;;;25.60;48.50;;;;;;5160920;27;20351;-48
2022/04/25 02:27:11;;;;;;;;;;;25.60;48.60;;;;;;5146156;27;19968;-47
2022/04/25 02:29:40;;;;;;;;;;;25.60;48.60;;;;;;5146179;27;19907;-47
2022/04/25 02:32:06;;;;;;;;;;;25.50;48.50;;;;;;5145747;27;20006;-48
2022/04/25 02:34:32;;;;;;;;;;;25.50;48.50;;;;;;5145742;27;19907;-46
2022/04/25 02:36:58;;;;;;;;;;;25.50;48.50;;;;;;5161145;27;19966;-46
2022/04/25 02:39:24;;;;;;;;;;;25.50;48.60;;;;;;5166593;27;19923;-46
2022/04/25 02:41:50;;;;;;;;;;;25.40;48.60;;;;;;5166349;27;19938;-46
2022/04/25 02:44:17;;;;;;;;;;;25.40;48.60;;;;;;5166885;27;19980;-48
2022/04/25 02:46:42;;;;;;;;;;;25.40;48.60;;;;;;5152143;27;19961;-47
2022/04/25 02:49:08;;;;;;;;;;;25.40;48.60;;;;;;5166470;27;19907;-47
2022/04/25 02:51:34;;;;;;;;;;;25.40;48.60;;;;;;5166496;27;19906;-47
2022/04/25 02:54:00;;;;;;;;;;;25.40;48.60;;;;;;5166442;27;19906;-46
2022/04/25 02:56:26;;;;;;;;;;;25.30;48.60;;;;;;5164817;27;19910;-45
2022/04/25 02:58:52;;;;;;;;;;;25.30;48.60;;;;;;5166513;27;19915;-46
2022/04/25 03:01:17;;;;;;;;;;;25.30;48.60;;;;;;5165776;27;19907;-47
2022/04/25 03:03:43;;;;;;;;;;;25.30;48.60;;;;;;5165930;27;19907;-46
2022/04/25 03:06:09;;;;;;;;;;;25.30;48.60;;;;;;5160934;27;19918;-47
2022/04/25 03:08:35;;;;;;;;;;;25.20;48.60;;;;;;5145398;27;19914;-47
2022/04/25 03:11:02;;;;;;;;;;;25.20;48.60;;;;;;5145259;27;20037;-47
2022/04/25 03:13:28;;;;;;;;;;;25.20;48.60;;;;;;5144915;27;19931;-46
2022/04/25 03:15:54;;;;;;;;;;;25.20;48.60;;;;;;5158778;27;20337;-46
2022/04/25 03:18:21;;;;;;;;;;;25.10;48.50;;;;;;5165762;27;19956;-47
2022/04/25 03:20:48;;;;;;;;;;;25.10;48.60;;;;;;5165913;27;19916;-45
2022/04/25 03:23:14;;;;;;;;;;;25.10;48.60;;;;;;5165739;27;19910;-46
2022/04/25 03:25:40;;;;;;;;;;;25.10;48.60;;;;;;5151835;27;19911;-46
2022/04/25 03:28:06;;;;;;;;;;;25.00;48.60;;;;;;5145167;27;19907;-46
2022/04/25 03:30:32;;;;;;;;;;;25.00;48.60;;;;;;5145126;27;19916;-47
2022/04/25 03:32:58;;;;;;;;;;;25.00;48.60;;;;;;5144744;27;20394;-46
2022/04/25 03:35:24;;;;;;;;;;;25.00;48.60;;;;;;5144967;27;20437;-46
2022/04/25 03:37:50;;;;;;;;;;;25.00;48.70;;;;;;5164737;27;19907;-47
2022/04/25 03:40:16;;;;;;;;;;;25.00;48.70;;;;;;5165159;27;19915;-47
2022/04/25 03:42:43;;;;;;;;;;;24.90;48.70;;;;;;5165388;27;19914;-47
2022/04/25 03:45:09;;;;;;;;;;;24.90;48.70;;;;;;5165500;27;19954;-46
2022/04/25 03:47:35;;;;;;;;;;;24.90;48.70;;;;;;5164985;27;19907;-46
2022/04/25 03:50:01;;;;;;;;;;;24.80;48.70;;;;;;5165347;27;19952;-47
2022/04/25 03:52:28;;;;;;;;;;;24.80;48.70;;;;;;5165329;27;19907;-45
2022/04/25 03:57:38;;;;;;;;;;;24.80;48.80;;;;;;5144393;27;19928;-47
2022/04/25 04:00:06;;;;;;;;;;;24.80;48.80;;;;;;5144450;27;20006;-48
2022/04/25 04:02:32;;;;;;;;;;;24.80;48.90;;;;;;5144410;27;19927;-47
2022/04/25 04:04:58;;;;;;;;;;;24.70;48.80;;;;;;5143979;27;19907;-46
2022/04/25 04:07:23;;;;;;;;;;;24.70;48.80;;;;;;5159920;27;19907;-48
2022/04/25 04:09:49;;;;;;;;;;;24.60;48.80;;;;;;5164830;27;19914;-49
2022/04/25 04:12:16;;;;;;;;;;;24.60;48.80;;;;;;5164759;27;20431;-48
2022/04/25 04:14:41;;;;;;;;;;;24.60;48.90;;;;;;5164286;27;20667;-48
2022/04/25 04:17:07;;;;;;;;;;;24.60;48.90;;;;;;5164594;27;19923;-48
2022/04/25 04:19:33;;;;;;;;;;;24.60;48.90;;;;;;5164601;27;19936;-49
2022/04/25 04:22:02;;;;;;;;;;;24.60;48.90;;;;;;5164735;27;19928;-47
2022/04/25 04:24:28;;;;;;;;;;;24.60;49.00;;;;;;5164189;27;20363;-48
2022/04/25 04:26:55;;;;;;;;;;;24.50;48.90;;;;;;5164574;27;19924;-49
2022/04/25 04:29:21;;;;;;;;;;;24.50;49.60;;;;;;5164683;27;19981;-48
2022/04/25 04:31:47;;;;;;;;;;;24.50;49.00;;;;;;5164668;27;19927;-46
2022/04/25 04:34:13;;;;;;;;;;;24.50;49.10;;;;;;5164458;27;19907;-48
2022/04/25 04:36:39;;;;;;;;;;;24.50;49.00;;;;;;5164573;27;19930;-47
2022/04/25 04:39:05;;;;;;;;;;;24.40;49.00;;;;;;5164603;27;19915;-48
2022/04/25 04:41:30;;;;;;;;;;;24.40;49.10;;;;;;5164585;27;19913;-47
2022/04/25 04:43:57;;;;;;;;;;;24.30;49.10;;;;;;5164309;27;19907;-47
2022/04/25 04:46:24;;;;;;;;;;;24.30;49.10;;;;;;5145624;27;19911;-47
2022/04/25 04:48:50;;;;;;;;;;;24.30;49.10;;;;;;5164503;27;19907;-46
2022/04/25 04:53:41;;;;;;;;;;;24.30;49.10;;;;;;5164601;27;20343;-47
2022/04/25 04:56:07;;;;;;;;;;;24.30;49.10;;;;;;5162710;27;19982;-47
2022/04/25 04:58:33;;;;;;;;;;;24.30;49.20;;;;;;5165172;27;19922;-46
2022/04/25 05:00:59;;;;;;;;;;;24.20;49.20;;;;;;5168547;27;19922;-46
2022/04/25 05:03:25;;;;;;;;;;;24.20;49.20;;;;;;5168721;27;19907;-47
2022/04/25 05:05:52;;;;;;;;;;;24.20;49.20;;;;;;5165356;27;19907;-47
2022/04/25 05:08:18;;;;;;;;;;;24.20;49.20;;;;;;5167947;27;19907;-48
2022/04/25 05:10:44;;;;;;;;;;;24.10;49.20;;;;;;5168377;27;19934;-46
2022/04/25 05:13:09;;;;;;;;;;;24.10;49.20;;;;;;5168662;27;20335;-47
2022/04/25 05:15:36;;;;;;;;;;;24.10;49.30;;;;;;5168268;27;20320;-48
2022/04/25 05:18:02;;;;;;;;;;;24.10;49.30;;;;;;5168420;27;19907;-49
2022/04/25 05:20:28;;;;;;;;;;;24.00;49.30;;;;;;5168364;27;19957;-47
2022/04/25 05:22:54;;;;;;;;;;;24.00;49.30;;;;;;5168472;27;19903;-47
2022/04/25 05:25:21;;;;;;;;;;;24.00;49.30;;;;;;5139005;27;19970;-48
2022/04/25 05:27:47;;;;;;;;;;;24.00;49.40;;;;;;5147494;27;19907;-48
2022/04/25 05:30:14;;;;;;;;;;;24.00;49.40;;;;;;5147576;27;19969;-46
2022/04/25 05:32:49;;;;;;;;;;;24.00;49.40;;;;;;5147302;27;19941;-48
2022/04/25 05:35:15;;;;;;;;;;;23.90;49.40;;;;;;5147206;27;19914;-47
2022/04/25 05:37:41;;;;;;;;;;;23.90;49.50;;;;;;5162247;27;20636;-47
2022/04/25 05:40:07;;;;;;;;;;;23.90;50.00;;;;;;5167915;27;19915;-47
2022/04/25 05:42:33;;;;;;;;;;;23.90;49.50;;;;;;5167634;27;19907;-47
2022/04/25 05:44:59;;;;;;;;;;;23.90;49.50;;;;;;5168041;27;19907;-49
2022/04/25 05:47:25;;;;;;;;;;;23.80;49.50;;;;;;5168040;27;19910;-48
2022/04/25 05:52:36;;;;;;;;;;;23.80;49.60;;;;;;5167657;27;19986;-48
2022/04/25 05:55:02;;;;;;;;;;;23.80;49.60;;;;;;5166767;27;19912;-47
2022/04/25 05:57:28;;;;;;;;;;;23.70;49.60;;;;;;5167627;27;19919;-47
2022/04/25 05:59:54;;;;;;;;;;;23.70;49.70;;;;;;5167889;27;20579;-46
2022/04/25 06:02:20;;;;;;;;;;;23.70;49.60;;;;;;5166838;27;19971;-47
2022/04/25 06:04:46;;;;;;;;;;;23.70;49.70;;;;;;5167566;27;19979;-47
2022/04/25 06:07:12;;;;;;;;;;;23.70;49.70;;;;;;5167505;27;19913;-46
2022/04/25 06:09:37;;;;;;;;;;;23.60;49.70;;;;;;5167579;27;19907;-46
2022/04/25 06:12:04;;;;;;;;;;;23.70;49.70;;;;;;5166981;27;19910;-46
2022/04/25 06:14:30;;;;;;;;;;;23.60;49.70;;;;;;5167314;27;19912;-47
2022/04/25 06:16:57;;;;;;;;;;;23.60;49.70;;;;;;5167204;27;19919;-49
2022/04/25 06:19:23;;;;;;;;;;;23.60;49.70;;;;;;5167191;27;19959;-47
2022/04/25 06:21:49;;;;;;;;;;;23.60;49.70;;;;;;5167374;27;19907;-47
2022/04/25 06:24:14;;;;;;;;;;;23.50;49.80;;;;;;5165464;27;19907;-46
2022/04/25 06:26:40;;;;;;;;;;;23.50;49.80;;;;;;5146280;27;19914;-46
2022/04/25 06:29:06;;;;;;;;;;;23.50;49.80;;;;;;5146536;27;19907;-46
2022/04/25 06:31:32;;;;;;;;;;;23.50;49.90;;;;;;5145980;27;19957;-46
2022/04/25 06:33:58;;;;;;;;;;;23.50;49.90;;;;;;5145973;27;19957;-46
2022/04/25 06:36:24;;;;;;;;;;;23.50;49.90;;;;;;5150062;27;19970;-46
2022/04/25 06:38:50;;;;;;;;;;;23.40;49.90;;;;;;5148271;27;19914;-46
2022/04/25 06:41:16;;;;;;;;;;;23.40;49.90;;;;;;5166642;27;19952;-46
2022/04/25 06:43:42;;;;;;;;;;;23.40;50.00;;;;;;5166633;27;19907;-47
2022/04/25 06:46:08;;;;;;;;;;;23.40;50.00;;;;;;5166830;27;20014;-46
2022/04/25 06:48:34;;;;;;;;;;;23.40;50.00;;;;;;5167021;27;20352;-45
2022/04/25 06:51:00;;;;;;;;;;;23.30;50.00;;;;;;5166385;27;20345;-46
2022/04/25 06:53:26;;;;;;;;;;;23.30;50.10;;;;;;5166226;27;19925;-45
2022/04/25 06:55:52;;;;;;;;;;;23.30;50.10;;;;;;5165464;27;19911;-45
2022/04/25 06:58:18;;;;;;;;;;;23.30;50.20;;;;;;5166330;27;19961;-48
2022/04/25 07:00:46;;;;;;;;;;;23.20;50.10;;;;;;5166393;27;19944;-46
2022/04/25 07:03:12;;;;;;;;;;;23.20;50.10;;;;;;5165523;27;19914;-46
2022/04/25 07:05:38;;;;;;;;;;;23.20;50.10;;;;;;5166378;27;20355;-45
2022/04/25 07:08:04;;;;;;;;;;;23.20;50.10;;;;;;5166562;27;19914;-45
2022/04/25 07:10:30;;;;;;;;;;;23.20;50.20;;;;;;5166087;27;20397;-46
2022/04/25 07:12:56;;;;;;;;;;;23.10;50.20;;;;;;5165763;27;19907;-45
2022/04/25 07:15:23;;;;;;;;;;;23.10;50.20;;;;;;5147653;27;19907;-47
2022/04/25 07:17:55;;;;;;;;;;;23.10;50.20;;;;;;5165785;27;19925;-45
2022/04/25 07:20:21;;;;;;;;;;;23.10;50.20;;;;;;5165725;27;19915;-45
2022/04/25 07:31:00;;;;;;;;;;;23.00;50.30;;;;;;5145253;27;19972;-46
2022/04/25 07:33:26;;;;;;;;;;;23.00;50.30;;;;;;5144585;27;19907;-45
2022/04/25 07:35:53;;;;;;;;;;;23.00;50.40;;;;;;5145060;27;20002;-45
2022/04/25 07:38:19;;;;;;;;;;;23.00;50.40;;;;;;5165053;27;20371;-46
2022/04/25 07:40:45;;;;;;;;;;;22.90;50.40;;;;;;5165546;27;19946;-46
2022/04/25 07:43:11;;;;;;;;;;;22.90;50.40;;;;;;5165406;27;19911;-46
2022/04/25 07:45:37;;;;;;;;;;;22.90;50.40;;;;;;5165057;27;19903;-46
2022/04/25 07:48:03;;;;;;;;;;;22.90;50.50;;;;;;5165541;27;19906;-46
2022/04/25 07:50:29;;;;;;;;;;;22.90;50.40;;;;;;5165432;27;19974;-45
2022/04/25 07:52:55;;;;;;;;;;;22.80;50.40;;;;;;5165225;27;19907;-47
2022/04/25 07:55:21;;;;;;;;;;;22.80;50.40;;;;;;5164173;27;19928;-47
2022/04/25 07:57:47;;;;;;;;;;;22.80;50.50;;;;;;5165103;27;20067;-47
2022/04/25 08:00:13;;;;;;;;;;;22.80;50.80;;;;;;5165091;27;19918;-44
2022/04/25 08:02:38;;;;;;;;;;;22.80;51.20;;;;;;5165135;27;19928;-45
2022/04/25 08:05:04;;;;;;;;;;;22.80;51.50;;;;;;5164838;27;19907;-46
2022/04/25 08:07:30;;;;;;;;;;;22.80;51.60;;;;;;5164988;27;19906;-45
2022/04/25 08:09:56;;;;;;;;;;;22.80;51.60;;;;;;5165127;27;19928;-46
2022/04/25 08:18:00;;;;;;;;;;;22.80;51.40;;;;;;5165016;27;19992;-46
2022/04/25 08:20:28;;;;;;;;;;;22.70;51.40;;;;;;5164538;27;19914;-45
2022/04/25 08:22:54;;;;;;;;;;;22.70;51.30;;;;;;5164897;27;19907;-46
2022/04/25 08:25:20;;;;;;;;;;;22.70;51.40;;;;;;5163443;27;20282;-45
2022/04/25 08:27:46;;;;;;;;;;;22.70;51.80;;;;;;5164907;27;19974;-46
2022/04/25 08:30:12;;;;;;;;;;;22.80;52.00;;;;;;5164746;27;19907;-45
2022/04/25 08:32:38;;;;;;;;;;;22.70;52.20;;;;;;5164199;27;19906;-45
2022/04/25 08:35:04;;;;;;;;;;;22.70;52.20;;;;;;5163915;27;19985;-44
2022/04/25 08:37:30;;;;;;;;;;;22.70;52.00;;;;;;5164769;27;19907;-45
2022/04/25 08:39:56;;;;;;;;;;;22.70;52.00;;;;;;5164402;27;20399;-46
2022/04/25 08:42:22;;;;;;;;;;;22.70;52.00;;;;;;5164267;27;19903;-47
2022/04/25 08:44:52;;;;;;;;;;;22.70;52.00;;;;;;5164454;27;19902;-46
2022/04/25 08:47:18;;;;;;;;;;;22.70;51.90;;;;;;5164492;27;19906;-46
2022/04/25 08:49:44;;;;;;;;;;;22.70;52.00;;;;;;5164514;27;19910;-45
2022/04/25 08:52:10;;;;;;;;;;;22.70;52.40;;;;;;5164455;27;19978;-46
2022/04/25 08:54:36;;;;;;;;;;;22.70;52.50;;;;;;5159444;27;19907;-45
2022/04/25 08:57:04;;;;;;;;;;;22.70;52.60;;;;;;5161291;27;19994;-45
2022/04/25 08:59:30;;;;;;;;;;;22.70;52.60;;;;;;5145764;27;19946;-44
2022/04/25 09:01:57;;;;;;;;;;;22.70;52.50;;;;;;5145779;27;19907;-45
2022/04/25 09:04:23;;;;;;;;;;;22.70;52.40;;;;;;5163936;27;19914;-46
2022/04/25 09:06:51;;;;;;;;;;;22.70;52.30;;;;;;5164169;27;19956;-45
2022/04/25 09:09:17;;;;;;;;;;;22.70;52.20;;;;;;5164501;27;20323;-45
2022/04/25 09:14:27;;;;;;;;;;;22.70;52.60;;;;;;5148253;27;19921;-47
2022/04/25 09:16:53;;;;;;;;;;;22.70;52.90;;;;;;5164115;27;19946;-45
2022/04/25 09:19:39;;;;;;;;;;;22.70;52.90;;;;;;5163955;27;19929;-45
2022/04/25 09:22:05;;;;;;;;;;;22.70;52.90;;;;;;5099591;28;19955;-45
2022/04/25 09:24:33;;;;;;;;;;;22.70;52.80;;;;;;5099290;28;19920;-46
2022/04/25 09:27:08;;;;;;;;;;;22.70;52.70;;;;;;5099382;28;19955;-45
2022/04/25 09:29:34;;;;;;;;;;;22.70;52.60;;;;;;5099582;28;19908;-44
2022/04/25 09:32:00;;;;;;;;;;;22.70;52.50;;;;;;5099685;28;19946;-45
2022/04/25 09:37:12;;;;;;;;;;;22.60;52.30;;;;;;5099476;28;19995;-44
2022/04/25 09:39:38;;;;;;;;;;;22.70;52.60;;;;;;5099501;28;19955;-46
2022/04/25 09:42:04;;;;;;;;;;;22.70;52.90;;;;;;5099453;28;19904;-46
2022/04/25 09:44:50;;;;;;;;;;;22.70;53.00;;;;;;5099978;28;19923;-45
2022/04/25 09:47:27;;;;;;;;;;;22.70;52.90;;;;;;5102939;28;19912;-46
2022/04/25 09:50:00;;;;;;;;;;;22.70;52.90;;;;;;5103189;28;19908;-45
2022/04/25 09:52:26;;;;;;;;;;;22.70;52.80;;;;;;5103042;28;19983;-45
2022/04/25 09:54:53;;;;;;;;;;;22.70;52.60;;;;;;5102622;28;19912;-45
2022/04/25 09:57:28;;;;;;;;;;;22.70;52.50;;;;;;5102769;28;19908;-45
2022/04/25 09:59:56;;;;;;;;;;;22.60;52.40;;;;;;5153776;27;19922;-45
2022/04/25 10:02:22;;;;;;;;;;;22.70;52.80;;;;;;5167601;27;19978;-45
2022/04/25 10:04:48;;;;;;;;;;;22.70;53.00;;;;;;5167663;27;19950;-45
2022/04/25 10:07:13;;;;;;;;;;;22.70;53.00;;;;;;5166928;27;19906;-46
2022/04/25 10:09:39;;;;;;;;;;;22.70;53.00;;;;;;5149126;27;19932;-44
2022/04/25 10:12:05;;;;;;;;;;;22.70;52.90;;;;;;5167376;27;20523;-44
2022/04/25 10:14:31;;;;;;;;;;;22.70;52.90;;;;;;5167357;27;19934;-47
2022/04/25 10:16:57;;;;;;;;;;;22.70;52.80;;;;;;5167125;27;19926;-44
2022/04/25 10:19:24;;;;;;;;;;;22.70;52.60;;;;;;5167119;27;19915;-46
2022/04/25 10:21:53;;;;;;;;;;;22.60;52.60;;;;;;5167237;27;19911;-45
2022/04/25 10:24:19;;;;;;;;;;;22.70;52.80;;;;;;5165949;27;19966;-45
2022/04/25 10:26:48;;;;;;;;;;;22.70;53.10;;;;;;5146061;27;19946;-46
2022/04/25 10:29:24;;;;;;;;;;;22.70;53.60;;;;;;5146412;27;19907;-45
2022/04/25 10:31:50;;;;;;;;;;;22.60;53.10;;;;;;5146174;27;19932;-45
2022/04/25 10:34:16;;;;;;;;;;;22.60;53.10;;;;;;5146217;27;19903;-45
2022/04/25 10:36:43;;;;;;;;;;;22.60;53.00;;;;;;5152176;27;19907;-45
2022/04/25 10:39:10;;;;;;;;;;;22.60;52.90;;;;;;5167135;27;19917;-44
2022/04/25 10:44:20;;;;;;;;;;;22.70;52.70;;;;;;5166950;27;19929;-45
2022/04/25 10:47:04;;;;;;;;;;;22.70;52.90;;;;;;5166570;27;19907;-45
2022/04/25 10:49:31;;;;;;;;;;;22.70;53.20;;;;;;5166637;27;19922;-45
2022/04/25 10:51:57;;;;;;;;;;;22.60;53.20;;;;;;5166581;27;19907;-44
2022/04/25 10:54:26;;;;;;;;;;;22.70;53.20;;;;;;5163939;27;19947;-47
2022/04/25 10:57:04;;;;;;;;;;;22.60;53.20;;;;;;5126263;27;20052;-45
2022/04/25 10:59:30;;;;;;;;;;;22.60;53.20;;;;;;5145883;27;19919;-45
2022/04/25 11:01:57;;;;;;;;;;;22.60;53.00;;;;;;5162587;27;20363;-45
2022/04/25 11:04:23;;;;;;;;;;;22.60;52.80;;;;;;5147493;27;20395;-46
2022/04/25 11:07:09;;;;;;;;;;;22.60;53.00;;;;;;5164991;27;19913;-45
2022/04/25 11:09:41;;;;;;;;;;;22.70;53.20;;;;;;5166388;27;19982;-44
2022/04/25 11:12:07;;;;;;;;;;;22.60;53.30;;;;;;5166252;27;19902;-45
2022/04/25 11:14:33;;;;;;;;;;;22.70;53.30;;;;;;5166482;27;19970;-47
2022/04/25 11:17:05;;;;;;;;;;;22.60;53.30;;;;;;5165865;27;19945;-44
2022/04/25 11:19:44;;;;;;;;;;;22.60;53.30;;;;;;5165783;27;19919;-47
2022/04/25 11:22:22;;;;;;;;;;;22.60;53.20;;;;;;5166151;27;19918;-44
2022/04/25 11:24:48;;;;;;;;;;;22.60;53.00;;;;;;5140722;27;19918;-44
2022/04/25 11:27:14;;;;;;;;;;;22.60;52.90;;;;;;5144832;27;19903;-45
2022/04/25 11:29:44;;;;;;;;;;;22.60;53.10;;;;;;5145136;27;19907;-45
2022/04/25 11:32:23;;;;;;;;;;;22.60;53.40;;;;;;5145105;27;19919;-45
2022/04/25 11:34:49;;;;;;;;;;;22.60;53.40;;;;;;5145000;27;19927;-45
2022/04/25 11:37:15;;;;;;;;;;;22.60;53.30;;;;;;5159603;27;19907;-44
2022/04/25 11:39:51;;;;;;;;;;;22.60;53.30;;;;;;5165868;27;19939;-45
2022/04/25 11:42:18;;;;;;;;;;;22.60;53.20;;;;;;5148569;27;19929;-44
2022/04/25 11:44:44;;;;;;;;;;;22.60;53.00;;;;;;5165576;27;20313;-45
2022/04/25 11:47:10;;;;;;;;;;;22.60;53.10;;;;;;5165261;27;19975;-44
2022/04/25 11:49:37;;;;;;;;;;;22.60;53.30;;;;;;5165541;27;19907;-47
2022/04/25 11:52:04;;;;;;;;;;;22.60;53.50;;;;;;5165641;27;19913;-45
2022/04/25 11:54:31;;;;;;;;;;;22.60;53.40;;;;;;5162504;27;19970;-47
2022/04/25 11:56:59;;;;;;;;;;;22.60;53.40;;;;;;5144445;27;19952;-44
2022/04/25 11:59:25;;;;;;;;;;;22.60;53.40;;;;;;5144576;27;19946;-44
2022/04/25 12:01:51;;;;;;;;;;;22.60;53.40;;;;;;5144753;27;19917;-45
2022/04/25 12:04:17;;;;;;;;;;;22.60;53.30;;;;;;5144556;27;19915;-45
2022/04/25 12:06:52;;;;;;;;;;;22.60;53.00;;;;;;5152564;27;19914;-45
2022/04/25 12:17:36;;;;;;;;;;;22.60;53.40;;;;;;5164611;27;20319;-44
2022/04/25 12:20:04;;;;;;;;;;;22.60;53.40;;;;;;5164828;27;19915;-45
2022/04/25 12:22:30;;;;;;;;;;;22.60;53.30;;;;;;5165160;27;19911;-44
2022/04/25 12:25:12;;;;;;;;;;;22.60;53.30;;;;;;5157261;27;19911;-45
2022/04/25 12:27:37;;;;;;;;;;;22.60;53.10;;;;;;5143701;27;20280;-44
2022/04/25 12:30:04;;;;;;;;;;;22.60;53.20;;;;;;5144184;27;19982;-44
2022/04/25 12:32:30;;;;;;;;;;;22.70;53.40;;;;;;5143967;27;20316;-44
2022/04/25 12:34:56;;;;;;;;;;;22.60;53.60;;;;;;5144089;27;19907;-45
2022/04/25 12:37:22;;;;;;;;;;;22.70;53.60;;;;;;5159373;27;19942;-45
2022/04/25 12:40:01;;;;;;;;;;;22.60;53.50;;;;;;5164756;27;19915;-45
2022/04/25 12:42:46;;;;;;;;;;;22.60;53.40;;;;;;5164494;27;19966;-45
2022/04/25 12:45:13;;;;;;;;;;;22.60;53.50;;;;;;5164741;27;19949;-44
2022/04/25 12:47:43;;;;;;;;;;;22.60;53.50;;;;;;5164255;27;19903;-45
2022/04/25 12:50:08;;;;;;;;;;;22.60;53.40;;;;;;5164602;27;19914;-46
2022/04/25 12:52:44;;;;;;;;;;;22.60;53.40;;;;;;5164178;27;19907;-45
2022/04/25 12:55:10;;;;;;;;;;;22.70;53.50;;;;;;5154692;27;19918;-46
2022/04/25 12:57:35;;;;;;;;;;;22.70;53.70;;;;;;5155272;27;19907;-47
2022/04/25 13:00:02;;;;;;;;;;;22.70;53.70;;;;;;5164142;27;19921;-46
2022/04/25 13:02:32;;;;;;;;;;;22.70;53.60;;;;;;5164368;27;19950;-49
2022/04/25 13:04:59;;;;;;;;;;;22.70;53.60;;;;;;5164525;27;19968;-47
2022/04/25 13:07:24;;;;;;;;;;;22.70;53.50;;;;;;5164709;27;19961;-46
2022/04/25 13:09:55;;;;;;;;;;;22.70;53.50;;;;;;5164246;27;19903;-45
2022/04/25 13:12:21;;;;;;;;;;;22.70;53.50;;;;;;5164197;27;19903;-45
2022/04/25 13:14:47;;;;;;;;;;;22.70;53.50;;;;;;5164423;27;19975;-45
2022/04/25 13:17:12;;;;;;;;;;;22.70;53.60;;;;;;5164174;27;19921;-45
2022/04/25 13:19:39;;;;;;;;;;;22.70;53.90;;;;;;5164426;27;19936;-45
2022/04/25 13:22:04;;;;;;;;;;;22.80;53.90;;;;;;5168206;27;19907;-47
2022/04/25 13:24:31;;;;;;;;;;;22.80;53.90;;;;;;5164406;27;19983;-45
2022/04/25 13:26:57;;;;;;;;;;;22.80;53.80;;;;;;5147815;27;19919;-46
2022/04/25 13:29:23;;;;;;;;;;;22.80;53.80;;;;;;5147035;27;19907;-47
2022/04/25 13:31:49;;;;;;;;;;;22.80;53.70;;;;;;5147493;27;19916;-46
2022/04/25 13:34:15;;;;;;;;;;;22.80;53.70;;;;;;5147456;27;19909;-46
2022/04/25 13:36:41;;;;;;;;;;;22.80;53.80;;;;;;5157010;27;19906;-47
2022/04/25 13:39:06;;;;;;;;;;;22.80;53.70;;;;;;5167899;27;19915;-46
2022/04/25 13:41:32;;;;;;;;;;;22.80;53.70;;;;;;5168220;27;19903;-47
2022/04/25 13:43:58;;;;;;;;;;;22.80;53.70;;;;;;5167974;27;19907;-47
2022/04/25 13:46:24;;;;;;;;;;;22.80;53.60;;;;;;5167916;27;19907;-47
2022/04/25 13:48:50;;;;;;;;;;;22.80;53.60;;;;;;5167620;27;19911;-47
2022/04/25 13:51:16;;;;;;;;;;;22.80;53.50;;;;;;5167963;27;19924;-48
2022/04/25 13:53:42;;;;;;;;;;;22.90;53.70;;;;;;5168339;27;19907;-45
2022/04/25 13:56:08;;;;;;;;;;;22.90;54.10;;;;;;5149742;27;19918;-45
2022/04/25 13:58:35;;;;;;;;;;;22.90;54.70;;;;;;5128070;27;19915;-46
2022/04/25 14:01:03;;;;;;;;;;;22.90;54.20;;;;;;5146923;27;19968;-47
2022/04/25 14:03:29;;;;;;;;;;;22.90;54.10;;;;;;5156792;27;19978;-46
2022/04/25 14:05:55;;;;;;;;;;;22.90;54.10;;;;;;5167741;27;19907;-46
2022/04/25 14:08:21;;;;;;;;;;;23.00;54.10;;;;;;5148921;27;19910;-47
2022/04/25 14:10:47;;;;;;;;;;;23.00;54.10;;;;;;5167085;27;19907;-46
2022/04/25 14:13:13;;;;;;;;;;;23.00;54.00;;;;;;5167597;27;19913;-46
2022/04/25 14:15:39;;;;;;;;;;;23.00;54.00;;;;;;5167578;27;19915;-48
2022/04/25 14:18:05;;;;;;;;;;;23.00;54.00;;;;;;5167231;27;19919;-46
2022/04/25 14:20:31;;;;;;;;;;;23.00;54.00;;;;;;5166875;27;19918;-48
2022/04/25 14:22:58;;;;;;;;;;;23.00;54.00;;;;;;5167130;27;20328;-46
2022/04/25 14:25:24;;;;;;;;;;;23.00;54.00;;;;;;5155579;27;19921;-46
2022/04/25 14:27:50;;;;;;;;;;;23.00;54.00;;;;;;5146432;27;19911;-46
2022/04/25 14:30:16;;;;;;;;;;;23.00;54.00;;;;;;5145987;27;19908;-46
2022/04/25 14:32:41;;;;;;;;;;;23.10;54.10;;;;;;5147833;27;19913;-47
2022/04/25 14:35:07;;;;;;;;;;;23.00;54.00;;;;;;5166900;27;20328;-46
2022/04/25 14:37:33;;;;;;;;;;;23.10;54.10;;;;;;5157963;27;20056;-46
2022/04/25 14:39:59;;;;;;;;;;;23.10;54.20;;;;;;5166641;27;20012;-47
2022/04/25 14:42:25;;;;;;;;;;;23.10;54.10;;;;;;5167119;27;19907;-47
2022/04/25 14:44:51;;;;;;;;;;;23.10;54.10;;;;;;5166878;27;19907;-47
2022/04/25 14:47:17;;;;;;;;;;;23.10;54.10;;;;;;5166979;27;20003;-46
2022/04/25 14:55:11;;;;;;;;;;;23.20;53.90;;;;;;5164270;27;20623;-47
2022/04/25 14:57:38;;;;;;;;;;;23.10;53.80;;;;;;5166146;27;19907;-48
2022/04/25 15:00:04;;;;;;;;;;;23.20;53.80;;;;;;5166018;27;19922;-48
2022/04/25 15:02:30;;;;;;;;;;;23.20;53.70;;;;;;5166514;27;19907;-45